Timeline UpdatesTrip UpdatesNews PostsPvt Posts♥♥Travel TipsAdmin PostsConv PostsFollowed PostsChat RequestsBlog PostsPNR Posts

Disclaimer
Search
 
 
Sun Nov 23, 2014 20:12:37 ISTHomeTrainsΣChainsAtlasPNRForumGalleryNewsFAQTripsMembersLoginFeedback
No Recent News for this Train
Other Trains in the News **new
Latest...
⇐ Return Journey: Train# 54256

54255/Varanasi Lucknow Passenger (UnReserved)

Time-Table HAS CHANGED.
Sep 02 2014 (11:11PM)
Change Departure Station:
Change Arrival Station:
Post a Train Travel TipPost a Train Travel Tip **new
Post a Comment/Question/Picture/VideoPost a Comment/Question/Picture/Video
Pantry/Catering
???
RSA - Rake Sharing
Rake/Coach Composition
Loco
News    PNR    Forum    Time-Table    Availability    Fare Chart    Map    Arr/Dep History    Trips    Gallery    ΣChains    X/O    Timeline    
Travel Time: 1h 0m    5 halts    Distance: 44 km    Avg Speed: 44 km/hr
Type: Passenger
Zone: NR/Northern
Departs @ 05:40 (Avg 54m late)
Platform# 8
SMTWTFS
Varanasi Junction/BSB 
Arrives @ 06:40 (Avg 1h 47m late)
Platform# ???
SMTWTFS
Bhadohi/BOY 

5 halts. 5 intermediate Stations between Varanasi Junction and Bhadohi

Show ALL intermediate Stations  Show Old Time-Table

#TrkCodeStation NameX/OArrivesAvgDepartsAvgHaltPFDay#KmSpeedElevZoneAddress
1%==%BSBVaranasi Junction (9)»  -05:40+54810.02782mNRVaranasi 221002, Uttar Pradesh
2%==%LOTLohta (3)  05:53+1:2405:54+1:281m--15.96080mNRLohta, Uttar Pradesh
3%==%CHHChaukhandi  06:04+1:2906:05+1:321m--115.95084mNR221405, Uttar Pradesh
4%==%SWPRSewapuri (2)X  06:13+1:3406:14+1:371m1122.54687mNRState Highway 87, Uttar Pradesh
5%==%KEHKapseti (2)X  06:21+1:4006:22+1:441m--127.96385mNRState Highway 87, Uttar Pradesh
6%==%PRFParsipur (2)  06:30+1:4506:31+1:521m--136.25587mNRSant Ravidas Nagar, Uttar Pradesh
7%==%BOYBhadohi (2)•X  06:40+1:4706:41+1:521m--144.55490mNRUttar Pradesh 221401, Uttar Pradesh
8%==%MOFMondh (2)  06:50+2:0106:51+2:051m--152.65491mNRUttar Pradesh 221406, Uttar Pradesh
9%==%SAWSuriawan (2)X  06:59+2:0707:00+2:121m--159.96090mNR221404, Uttar Pradesh
10%==%SQNSarai Kansrai (2)  07:09 07:10+2:1307:10 07:11+2:171m--169.93492mNRGopalaha Marg, Uttar Pradesh
11%=-|JNHJanghai Junction (3)  07:18 07:20+2:1407:20 07:22+2:182m--174.94892mNRUttar Pradesh 212401, Uttar Pradesh
12%=-|NBPNibhapur (1)  07:31 07:32+2:2207:32 07:33+2:231m1182.96691mNRThakur Rd, Uttar Pradesh
13|--|BSEBadshahpur (2)  07:40 07:41+2:2507:41 07:42+2:321m--191.75093mNRMungra Badshahpur, Uttar Pradesh
14|--|SWSSuwansa (2)  07:49 07:50+2:3207:50 07:51+2:331m--198.342100mNRState Highway 36, Uttar Pradesh
15|--|GRXGaura (2)  07:58 07:59+2:3407:59 08:00+2:421m--1103.96097mNRState Highway 36, Uttar Pradesh
16|--|DNDDandupur (1)  08:09 08:10+2:4108:10 08:11+2:431m11113.95199mNRDelhupur, Uttar Pradesh
17|--|PHVPirthiGanj (2)X  08:18 08:19+2:4508:19 08:20+2:521m--1120.71199mNRState Highway 36, Uttar Pradesh
18|--|PBHPratapgarh Junction (3)X  09:00+2:3409:10+2:3810m21128.11697mNRPratapgarh, Uttar Pradesh
19|--|CILChilbila Junction (5)  09:24 09:25+2:2509:25 09:26+2:301m--1132.08399mNRState Highway 9, Uttar Pradesh
20|--|JGJJageshwarganj (1)  09:34 09:35+2:3209:35 09:36+2:341m11144.453101mNRPartapgarh, Uttar Pradesh
21|--|ANTUAntu (2)  09:44 09:45+2:3409:45 09:46+2:431m--1152.316101mNRDist. Pratapgarh, Uttar Pradesh
22|--|SHJPSahajipur Halt (1)X  09:51 09:52-09:52 09:53-1m11153.951102mNRSahajipur, Uttar Pradesh
23|--|MFLMisrauli (1)  09:58 09:59+2:4209:59 10:00+2:451m11159.031100mNRGauriGanj, Uttar Pradesh
24|-=!AMEAmethi (2)  10:07 10:08+2:2210:08 10:10+2:241 2m--1163.150107mNRAmethi., Uttar Pradesh
25!==!TLKHTalakhajuri (1)XO  10:18 10:19+2:4910:19 10:20+2:531m11170.643112mNRAntu, Uttar Pradesh
26!==!GNGGauriGanj (2)O  10:27 10:28+2:5510:28 10:29+3:031m--1176.456110mNRSH 34, Uttar Pradesh
27!==!BANIBani (1)  10:37 10:38+2:5510:38 10:39+3:011m11184.754109mNRJais, Uttar Pradesh
28!==!KCJKasimpur (1)  10:46 10:47-10:47 10:48-1m11192.030111mNRGauriGanj, Uttar Pradesh
29!==!JAISJais (2)  10:52 10:53+2:5810:53 10:54+3:041m--1194.470108mNRRae Bareli, Uttar Pradesh
30!==!FTGFursatGanj (2)  11:02 11:03+3:0811:03 11:04+3:101m--1205.069119mNRJais, Uttar Pradesh
31!==!RUMRupamau (2)  11:11 11:12+3:1011:12 11:13+3:171m--1214.210118mNRGangaGanj, Uttar Pradesh
32!==!RBLRae Bareli Junction (4)X  12:05+2:4212:15+2:4410m--1223.246116mNRRaebareli, Uttar Pradesh
33!==!GANGGangaGanj (2)  12:25+2:4412:26+2:511m--1230.960118mNRBachhrawan, Uttar Pradesh
34!==!HCPHarchandpur (3)X  12:33+2:5112:34+2:551m--1237.954118mNRRae Bareli, Uttar Pradesh
35!==!KVGKundanganj (2)  12:41+3:0312:42+3:091m--1244.334119mNRHarchandpur, Uttar Pradesh
36!==!BCNBachhrawan (2)  12:55 12:59+3:0312:57 13:00+3:062 1m--1253.826124mNRLucknow, Uttar Pradesh
37!==!SAGRShrirajnagar (1)X  13:05 13:13+3:0113:06 13:14+3:071m11259.545122mNRMohanlalGanj, Uttar Pradesh
38!==!NHNNigohan (1)X  13:14 13:22+3:0813:15 13:23+3:181m11265.552120mNRLucknow, Uttar Pradesh
39!==!KKAHKankaha (1)  13:24 13:31+3:1513:25 13:32+3:221m11272.460125mNRBachhrawan, Uttar Pradesh
40!==!MLJMohanlalGanj (1)  13:33 13:40+3:2813:34 13:41+3:471m11280.422124mNRMohanlalganj, Uttar Pradesh
41!==/UTRUtraitia Junction (2)X  14:04+3:3714:05+4:101m--1288.916124mNRLucknow, Uttar Pradesh
42/==/LKOLucknow Charbagh NR (9)  14:50+3:08---1301.1- NR226004, Uttar Pradesh
Scroll to Top
Scroll to Bottom